Big Bear Station Historical Data
Daily Summary for October 28, 2017 Units:  English    Metric   Both
« Previous Day
Next Day »
Daily Weekly Monthly Yearly Custom
  High: Low: Average:
Temperature: 72.1 °F 36.7 °F 51.1 °F
Dew Point: 34.5 °F 22.5 °F 27.1 °F
Humidity: 70 % 18 % 43 %
Wind Speed: 4.7 mph 0.0 mph 0.9 mph
Wind Gust: -999.0 mph - -
Wind:- - SW
Pressure: 23.58 in 23.53 in -
Precipitation: 0.00 in    
Historical Graphs
 
 
Tabular Data for October 28, 2017
Time Temperature Dew Point Pressure Wind Wind Speed Wind Gust Humidity Rainfall Rate (Hourly)
00:11 42.4 °F 26.9 °F 23.58 in SSE 2.2 mph -999.0 mph 54 % 0 in
00:27 42.3 °F 26.8 °F 23.58 in ESE 2.7 mph -999.0 mph 54 % 0 in
00:42 41.9 °F 26.5 °F 23.58 in Calm   -999.0 mph 54 % 0 in
00:57 41.9 °F 26.9 °F 23.58 in South 2.2 mph -999.0 mph 55 % 0 in
01:12 42.1 °F 26.2 °F 23.58 in SSE 2.2 mph -999.0 mph 53 % 0 in
01:27 42.4 °F 25.1 °F 23.57 in SSE 2.7 mph -999.0 mph 50 % 0 in
01:43 42.4 °F 25.1 °F 23.57 in South 2.2 mph -999.0 mph 50 % 0 in
01:58 42.1 °F 25.3 °F 23.57 in South 2.2 mph -999.0 mph 51 % 0 in
02:13 41.7 °F 26.3 °F 23.57 in SSE 1.7 mph -999.0 mph 54 % 0 in
02:28 41.4 °F 24.1 °F 23.57 in Calm   -999.0 mph 50 % 0 in
02:43 41.5 °F 24.2 °F 23.57 in SSE 2.2 mph -999.0 mph 50 % 0 in
02:59 41.2 °F 24.9 °F 23.57 in Calm   -999.0 mph 52 % 0 in
03:14 41.2 °F 24.4 °F 23.57 in SSE 2.2 mph -999.0 mph 51 % 0 in
03:30 41.2 °F 22.5 °F 23.56 in Calm   -999.0 mph 47 % 0 in
03:45 41.0 °F 23.3 °F 23.56 in Calm   -999.0 mph 49 % 0 in
04:00 40.3 °F 23.1 °F 23.56 in Calm   -999.0 mph 50 % 0 in
04:15 39.7 °F 24.4 °F 23.56 in Calm   -999.0 mph 54 % 0 in
04:31 39.2 °F 25.2 °F 23.56 in Calm   -999.0 mph 57 % 0 in
04:46 39.0 °F 26.7 °F 23.56 in Calm   -999.0 mph 61 % 0 in
05:01 39.6 °F 26.0 °F 23.56 in SSE 1.7 mph -999.0 mph 58 % 0 in
05:16 39.7 °F 27.3 °F 23.56 in Calm   -999.0 mph 61 % 0 in
05:31 39.4 °F 27.5 °F 23.56 in Calm   -999.0 mph 62 % 0 in
05:47 38.8 °F 27.7 °F 23.56 in Calm   -999.0 mph 64 % 0 in
06:02 38.5 °F 27.4 °F 23.56 in Calm   -999.0 mph 64 % 0 in
06:17 38.3 °F 28.3 °F 23.56 in Calm   -999.0 mph 67 % 0 in
06:32 37.9 °F 28.6 °F 23.57 in Calm   -999.0 mph 69 % 0 in
06:47 37.2 °F 27.3 °F 23.56 in Calm   -999.0 mph 67 % 0 in
07:03 36.9 °F 28.0 °F 23.56 in Calm   -999.0 mph 70 % 0 in
07:18 36.7 °F 27.1 °F 23.56 in Calm   -999.0 mph 68 % 0 in
07:33 37.0 °F 27.8 °F 23.57 in Calm   -999.0 mph 69 % 0 in
07:48 37.9 °F 29.0 °F 23.57 in Calm   -999.0 mph 70 % 0 in
08:03 37.6 °F 28.3 °F 23.57 in Calm   -999.0 mph 69 % 0 in
08:19 38.1 °F 28.5 °F 23.57 in Calm   -999.0 mph 68 % 0 in
08:34 39.0 °F 28.6 °F 23.58 in Calm   -999.0 mph 66 % 0 in
08:50 40.1 °F 28.1 °F 23.58 in Calm   -999.0 mph 62 % 0 in
09:05 41.0 °F 29.0 °F 23.58 in Calm   -999.0 mph 62 % 0 in
09:20 42.3 °F 27.3 °F 23.58 in Calm   -999.0 mph 55 % 0 in
09:35 44.8 °F 32.6 °F 23.58 in Calm   -999.0 mph 62 % 0 in
09:51 47.1 °F 29.9 °F 23.58 in Calm   -999.0 mph 51 % 0 in
10:06 49.8 °F 31.4 °F 23.58 in NW 2.7 mph -999.0 mph 49 % 0 in
10:21 53.6 °F 32.2 °F 23.58 in NNW 1.1 mph -999.0 mph 44 % 0 in
10:36 60.1 °F 26.0 °F 23.57 in South 1.1 mph -999.0 mph 27 % 0 in
10:51 64.9 °F 26.2 °F 23.57 in SSW 1.1 mph -999.0 mph 23 % 0 in
11:07 66.7 °F 25.5 °F 23.57 in Calm   -999.0 mph 21 % 0 in
11:22 68.0 °F 25.4 °F 23.57 in SSE 2.2 mph -999.0 mph 20 % 0 in
11:38 68.4 °F 26.9 °F 23.57 in Calm   -999.0 mph 21 % 0 in
11:53 70.7 °F 26.4 °F 23.57 in NE 1.1 mph -999.0 mph 19 % 0 in
12:08 70.3 °F 24.8 °F 23.56 in Calm   -999.0 mph 18 % 0 in
12:23 71.4 °F 25.7 °F 23.56 in SSW 2.2 mph -999.0 mph 18 % 0 in
12:39 71.1 °F 26.7 °F 23.55 in North 3.7 mph -999.0 mph 19 % 0 in
12:54 71.6 °F 25.8 °F 23.55 in NNW 4.2 mph -999.0 mph 18 % 0 in
13:09 72.0 °F 27.5 °F 23.54 in NW 4.7 mph -999.0 mph 19 % 0 in
13:25 72.1 °F 26.2 °F 23.54 in NNW 4.7 mph -999.0 mph 18 % 0 in
13:40 71.6 °F 25.8 °F 23.54 in NW 4.2 mph -999.0 mph 18 % 0 in
13:55 70.5 °F 24.9 °F 23.54 in NNE 3.7 mph -999.0 mph 18 % 0 in
14:10 71.1 °F 31.4 °F 23.53 in NW 3.2 mph -999.0 mph 23 % 0 in
14:25 69.4 °F 30.0 °F 23.53 in East 2.2 mph -999.0 mph 23 % 0 in
14:41 69.1 °F 29.7 °F 23.53 in NW 2.7 mph -999.0 mph 23 % 0 in
14:56 69.3 °F 29.9 °F 23.53 in WSW 2.2 mph -999.0 mph 23 % 0 in
15:11 69.1 °F 30.8 °F 23.53 in Calm   -999.0 mph 24 % 0 in
15:27 67.6 °F 33.3 °F 23.53 in NNW 2.7 mph -999.0 mph 28 % 0 in
15:42 67.5 °F 34.1 °F 23.53 in NW 2.7 mph -999.0 mph 29 % 0 in
15:57 66.9 °F 34.5 °F 23.53 in Calm   -999.0 mph 30 % 0 in
16:12 66.0 °F 32.0 °F 23.53 in NNW 2.7 mph -999.0 mph 28 % 0 in
16:28 65.1 °F 32.0 °F 23.53 in Calm   -999.0 mph 29 % 0 in
16:43 64.6 °F 28.0 °F 23.53 in SSW 3.7 mph -999.0 mph 25 % 0 in
16:58 64.2 °F 25.6 °F 23.53 in Calm   -999.0 mph 23 % 0 in
17:13 63.3 °F 25.9 °F 23.53 in Calm   -999.0 mph 24 % 0 in
17:28 62.2 °F 25.9 °F 23.53 in Calm   -999.0 mph 25 % 0 in
17:44 60.8 °F 25.7 °F 23.53 in Calm   -999.0 mph 26 % 0 in
17:59 59.2 °F 26.9 °F 23.54 in Calm   -999.0 mph 29 % 0 in
18:14 57.7 °F 27.3 °F 23.54 in Calm   -999.0 mph 31 % 0 in
18:29 56.7 °F 27.2 °F 23.54 in Calm   -999.0 mph 32 % 0 in
18:44 55.4 °F 26.0 °F 23.54 in Calm   -999.0 mph 32 % 0 in
19:00 54.1 °F 25.6 °F 23.54 in Calm   -999.0 mph 33 % 0 in
19:15 53.1 °F 25.5 °F 23.54 in Calm   -999.0 mph 34 % 0 in
19:31 51.6 °F 24.8 °F 23.54 in Calm   -999.0 mph 35 % 0 in
20:01 49.6 °F 24.4 °F 23.54 in Calm   -999.0 mph 37 % 0 in
20:31 48.2 °F 23.8 °F 23.55 in Calm   -999.0 mph 38 % 0 in
20:47 47.3 °F 23.0 °F 23.55 in Calm   -999.0 mph 38 % 0 in
21:02 46.6 °F 24.7 °F 23.55 in Calm   -999.0 mph 42 % 0 in
21:17 46.0 °F 25.3 °F 23.55 in Calm   -999.0 mph 44 % 0 in
21:32 45.3 °F 25.7 °F 23.55 in Calm   -999.0 mph 46 % 0 in
21:47 45.0 °F 27.0 °F 23.56 in Calm   -999.0 mph 49 % 0 in
22:03 44.4 °F 25.4 °F 23.55 in Calm   -999.0 mph 47 % 0 in
22:18 44.1 °F 25.6 °F 23.56 in Calm   -999.0 mph 48 % 0 in
22:33 43.5 °F 26.1 °F 23.56 in Calm   -999.0 mph 50 % 0 in
22:48 43.2 °F 24.8 °F 23.55 in Calm   -999.0 mph 48 % 0 in
23:04 42.3 °F 27.3 °F 23.56 in Calm   -999.0 mph 55 % 0 in
23:19 41.7 °F 29.6 °F 23.55 in Calm   -999.0 mph 62 % 0 in
23:35 41.7 °F 29.6 °F 23.55 in Calm   -999.0 mph 62 % 0 in
23:50 41.7 °F 29.2 °F 23.55 in Calm   -999.0 mph 61 % 0 in
Big Bear CA Weather
Compliments of Weather Underground - 1.5 mb